Главная страница
METAR-TAF:

METAR-TAF

Аэропорты :

Москва-Внуково, Россия

Внуково

широта: 55-39N, долгота: 037-16E, высота над уровнем моря: 203 м

Текущие метеонаблюдения

Эта сводка был подготовлена 40 минут назад, в 16:00 UTC
Ветер 10 Узел от северо-западный
Температура 20°C
Влажность 49%
Давление 1014 hPa
Видимость 10 км и более
Нет облачности ниже 1500 м, и нет кучево-дождевой облачности

METAR: UUWW 231600Z 31005MPS CAVOK 20/09 Q1014 R24/000070 NOSIG

Время: 19:40 (16:40 UTC)

Прогноз

Эта сводка был подготовлена 2 часа и 41 минут назад, в 13:59 UTC
Прогноз действительный с 23-го 15 UTC до 24-го 15 UTC
Ветер 14 Узел от северо-западный
Видимость 10 км и более
Отдельные облака на высоте 3000 фута
изменения
С 23-го 18 UTC до 23-го 20 UTC
Ветер 6 Узел от западный-юго-западный
временами
С 24-го 07 UTC до 24-го 15 UTC
Ветер 19 Узел от западный

TAF: UUWW 231359Z 2315/2415 31007MPS 9999 SCT030 TX21/2412Z TN10/2401Z BECMG 2318/2320 25003MPS TEMPO 2407/2415 26010MPS

Метеонаблюдения и прогнозы для более 4000 аэропортов (сводки METAR и TAF).

Имеющиеся станции представлены на карте желтыми и красными точками.

Чтобы увидеть название станции, наведите на нее мышь.

Затем щелкните, чтобы увидеть метеонаблюдения и метеопрогнозы.

Управление картой: чтобы увеличить масштаб, щелкните зеленые кнопки с черным крестиком; чтобы уменьшить масштаб, щелкните зеленую кнопку с тире; для просмотра соседних карт щелкайте зеленые стрелки.


METAR-TAF: